Air Navigation Services of Czech Republic
Airport: LKKB Updated:  15.10.2019 18:00:30  UTC
 METAR LKKB 15.10. 18:00 ...
METAR LKKB 151800Z 20002KT CAVOK 11/09 Q1007 NOSIG RMK BLU BLU=
 TAF LKKB 15.10. 17:00 ...
TAF LKKB 151700Z 1518/1618 18002KT CAVOK      TEMPO 1520/1523 4000 BR      BECMG 1602/1604 9999 BKN025      TEMPO 1603/1618 6000 RA BKN015=